Time;durP1;ratioP1;P1;durP2;ratioP2;P2;SDS_P1;SDS_P2;PMS_P1;PMS_P2;Temp;Humidity;BMP_temperature;BMP_pressure;BME280_temperature;BME280_humidity;BME280_pressure;Samples;Min_cycle;Max_cycle;Signal;HPM_P1;HPM_P2
2021/11/12 00:12:44;;;;;;;14.70;8.73;;;17.30;49.90;;;;;;5037170;28;20064;-46
2021/11/12 00:15:12;;;;;;;13.15;8.60;;;17.30;49.90;;;;;;5036542;28;20036;-48
2021/11/12 00:17:40;;;;;;;11.43;8.07;;;17.30;49.90;;;;;;5036901;28;20018;-48
2021/11/12 00:20:06;;;;;;;13.63;9.73;;;17.30;49.90;;;;;;5036800;28;20028;-49
2021/11/12 00:22:33;;;;;;;13.80;9.55;;;17.30;49.90;;;;;;5040847;28;20017;-49
2021/11/12 00:25:01;;;;;;;15.85;9.90;;;17.30;49.90;;;;;;5040940;28;20073;-51
2021/11/12 00:27:27;;;;;;;12.18;9.18;;;17.30;49.90;;;;;;5024836;28;20021;-46
2021/11/12 00:30:01;;;;;;;15.57;9.48;;;17.30;49.90;;;;;;5041374;28;20477;-47
2021/11/12 00:38:02;;;;;;;16.33;9.30;;;17.30;50.40;;;;;;5042850;28;20036;-49
2021/11/12 00:40:31;;;;;;;16.15;10.18;;;17.30;49.90;;;;;;5041952;28;20466;-49
2021/11/12 00:45:30;;;;;;;16.00;9.40;;;17.20;49.70;;;;;;5042473;28;20017;-46
2021/11/12 00:48:11;;;;;;;11.80;9.70;;;17.20;49.70;;;;;;5041450;28;20014;-51
2021/11/12 00:55:39;;;;;;;15.30;10.00;;;17.20;49.80;;;;;;5020878;28;20034;-51
2021/11/12 00:58:05;;;;;;;15.35;9.75;;;17.20;49.70;;;;;;5037857;28;20045;-46
2021/11/12 01:00:31;;;;;;;15.27;10.10;;;17.20;49.70;;;;;;5038019;28;20018;-48
2021/11/12 01:02:59;;;;;;;14.43;10.07;;;17.20;49.70;;;;;;5020857;28;20537;-48
2021/11/12 01:05:25;;;;;;;18.13;11.18;;;17.20;49.70;;;;;;5038940;28;20092;-44
2021/11/12 01:07:51;;;;;;;15.40;9.75;;;17.20;49.60;;;;;;5038221;28;20033;-46
2021/11/12 01:10:19;;;;;;;18.30;10.75;;;17.20;49.70;;;;;;5038623;28;20088;-48
2021/11/12 01:12:45;;;;;;;13.23;9.38;;;17.20;49.70;;;;;;5038340;28;20025;-46
2021/11/12 01:15:12;;;;;;;16.42;10.32;;;17.20;49.60;;;;;;5037760;28;20038;-46
2021/11/12 01:17:39;;;;;;;14.32;9.32;;;17.10;49.60;;;;;;5036581;28;20021;-49
2021/11/12 01:20:06;;;;;;;13.38;10.27;;;17.10;49.60;;;;;;5036376;28;20107;-49
2021/11/12 01:22:34;;;;;;;17.02;10.35;;;17.10;49.50;;;;;;5035882;28;20018;-49
2021/11/12 01:25:01;;;;;;;13.65;10.77;;;17.10;49.60;;;;;;5035850;28;20021;-50
2021/11/12 01:27:27;;;;;;;13.65;10.55;;;17.10;49.50;;;;;;5036447;28;20014;-47
2021/11/12 01:29:54;;;;;;;15.10;10.18;;;17.10;49.50;;;;;;5036164;28;20018;-48
2021/11/12 01:32:21;;;;;;;17.55;11.07;;;17.10;49.60;;;;;;5035219;28;20473;-47
2021/11/12 01:34:49;;;;;;;16.52;9.70;;;17.10;49.50;;;;;;5036389;28;20516;-50
2021/11/12 01:37:18;;;;;;;20.30;10.65;;;17.10;49.50;;;;;;5035986;28;20518;-48
2021/11/12 01:39:47;;;;;;;17.13;10.55;;;17.10;49.40;;;;;;5035519;28;20020;-50
2021/11/12 01:42:13;;;;;;;14.13;10.15;;;17.10;49.50;;;;;;5035607;28;20104;-48
2021/11/12 01:44:46;;;;;;;15.90;10.95;;;17.10;49.40;;;;;;5036304;28;20025;-47
2021/11/12 01:47:30;;;;;;;15.05;10.57;;;17.10;49.50;;;;;;5035840;28;20022;-49
2021/11/12 01:50:03;;;;;;;15.98;10.18;;;17.10;49.40;;;;;;5036480;28;20075;-49
2021/11/12 01:52:39;;;;;;;15.13;10.40;;;17.00;49.40;;;;;;5036290;28;20021;-48
2021/11/12 01:55:11;;;;;;;14.50;10.68;;;17.00;49.40;;;;;;5018548;28;20035;-48
2021/11/12 02:00:23;;;;;;;15.52;10.43;;;17.00;49.40;;;;;;5037224;28;20562;-47
2021/11/12 02:02:49;;;;;;;16.33;10.90;;;17.00;49.30;;;;;;5018763;28;20466;-46
2021/11/12 02:05:16;;;;;;;16.95;11.68;;;17.00;49.30;;;;;;5036096;28;20017;-50
2021/11/12 02:07:42;;;;;;;18.90;10.90;;;17.00;49.30;;;;;;5036552;28;20050;-48
2021/11/12 02:10:18;;;;;;;17.40;10.80;;;17.00;49.30;;;;;;5036832;28;20088;-48
2021/11/12 02:13:03;;;;;;;15.25;10.00;;;17.00;49.30;;;;;;5035833;28;20017;-47
2021/11/12 02:15:29;;;;;;;16.98;11.45;;;17.00;49.20;;;;;;5035626;28;20385;-48
2021/11/12 02:18:02;;;;;;;15.48;10.77;;;17.00;49.20;;;;;;5040578;28;20033;-55
2021/11/12 02:20:42;;;;;;;17.85;11.50;;;17.00;49.20;;;;;;5041061;28;20045;-54
2021/11/12 02:23:08;;;;;;;14.20;10.20;;;17.00;49.20;;;;;;5040863;28;20491;-51
2021/11/12 02:25:44;;;;;;;16.35;10.75;;;16.90;49.20;;;;;;5040007;28;20022;-52
2021/11/12 02:28:19;;;;;;;15.07;11.57;;;17.00;49.30;;;;;;5040489;28;20029;-51
2021/11/12 02:30:50;;;;;;;19.48;11.43;;;16.90;49.20;;;;;;5039900;28;20024;-53
2021/11/12 02:33:17;;;;;;;18.30;10.97;;;16.90;49.20;;;;;;5040124;28;20050;-52
2021/11/12 02:36:06;;;;;;;17.75;10.52;;;16.90;49.20;;;;;;5039349;28;20284;-52
2021/11/12 02:38:32;;;;;;;18.48;11.25;;;17.00;49.30;;;;;;5029503;28;20080;-57
2021/11/12 02:40:58;;;;;;;14.75;11.02;;;16.90;49.10;;;;;;5038760;28;20021;-55
2021/11/12 02:43:23;;;;;;;15.85;10.90;;;16.90;49.10;;;;;;5039218;28;20021;-56
2021/11/12 02:45:50;;;;;;;15.02;10.52;;;16.90;49.20;;;;;;5021343;28;20482;-53
2021/11/12 02:48:17;;;;;;;17.02;12.15;;;16.90;49.20;;;;;;5039385;28;20021;-55
2021/11/12 02:50:43;;;;;;;19.63;12.35;;;16.90;49.10;;;;;;5038392;28;20507;-54
2021/11/12 02:53:13;;;;;;;19.60;11.20;;;16.90;49.10;;;;;;5038357;28;20026;-52
2021/11/12 02:55:40;;;;;;;24.15;11.73;;;16.80;49.10;;;;;;5036412;28;20418;-56
2021/11/12 02:58:05;;;;;;;16.75;11.50;;;16.90;49.20;;;;;;5036637;28;20013;-55
2021/11/12 03:00:31;;;;;;;18.90;11.05;;;16.80;49.10;;;;;;5034879;28;20374;-54
2021/11/12 03:02:57;;;;;;;14.70;11.18;;;16.90;49.20;;;;;;5035148;28;20013;-52
2021/11/12 03:05:23;;;;;;;15.65;11.38;;;16.80;49.10;;;;;;5035247;28;20053;-50
2021/11/12 03:07:48;;;;;;;16.00;11.00;;;16.80;49.10;;;;;;5017715;28;20050;-48
2021/11/12 03:10:15;;;;;;;17.98;11.82;;;16.80;49.10;;;;;;5035318;28;20017;-52
2021/11/12 03:12:42;;;;;;;16.00;11.95;;;16.80;49.00;;;;;;5035725;28;20101;-51
2021/11/12 03:15:10;;;;;;;16.67;11.70;;;16.80;49.00;;;;;;5035440;28;20029;-51
2021/11/12 03:17:36;;;;;;;16.30;11.15;;;16.80;49.00;;;;;;5018942;28;20021;-52
2021/11/12 03:20:04;;;;;;;17.08;11.02;;;16.80;49.00;;;;;;5036421;28;20009;-52
2021/11/12 03:22:36;;;;;;;17.17;11.48;;;16.80;49.10;;;;;;5037850;28;20052;-54
2021/11/12 03:25:08;;;;;;;17.15;10.70;;;16.80;49.10;;;;;;5038547;28;20025;-54
2021/11/12 03:27:47;;;;;;;19.90;11.10;;;16.80;49.10;;;;;;5038490;28;20111;-51
2021/11/12 04:02:58;;;;;;;16.65;10.98;;;16.70;48.90;;;;;;5042102;28;20091;-50
2021/11/12 05:34:52;;;;;;;11.05;8.25;;;19.10;42.00;;;;;;5037485;28;20104;-52
2021/11/12 05:45:56;;;;;;;9.75;6.82;;;19.10;41.80;;;;;;5022435;28;20103;-56
2021/11/12 05:56:23;;;;;;;10.35;6.72;;;19.10;41.60;;;;;;5036977;28;20044;-56
2021/11/12 05:58:49;;;;;;;10.40;7.50;;;19.10;41.60;;;;;;5043704;28;20009;-56
2021/11/12 06:01:15;;;;;;;8.95;7.30;;;19.10;41.60;;;;;;5025081;28;20025;-57
2021/11/12 06:03:41;;;;;;;9.05;6.80;;;19.10;41.50;;;;;;5043168;28;20010;-56
2021/11/12 06:06:08;;;;;;;8.95;7.03;;;19.10;41.60;;;;;;5025237;28;20061;-58
2021/11/12 06:08:34;;;;;;;7.93;6.80;;;19.10;41.50;;;;;;5043336;28;20018;-56
2021/11/12 06:11:02;;;;;;;10.50;6.40;;;19.10;41.40;;;;;;5044750;28;20036;-57
2021/11/12 06:13:28;;;;;;;7.50;6.63;;;19.20;41.30;;;;;;5010420;28;20045;-57
2021/11/12 06:15:55;;;;;;;10.38;6.28;;;19.20;41.30;;;;;;5007069;28;20025;-57
2021/11/12 06:18:21;;;;;;;9.90;6.53;;;19.10;41.30;;;;;;5020388;28;20032;-55
2021/11/12 06:20:47;;;;;;;10.43;6.80;;;19.20;41.30;;;;;;5038724;28;20017;-57
2021/11/12 06:23:13;;;;;;;8.50;6.50;;;19.20;41.20;;;;;;5039468;28;20014;-57
2021/11/12 06:25:39;;;;;;;10.05;6.53;;;19.20;41.00;;;;;;5040755;28;20462;-56
2021/11/12 06:28:04;;;;;;;8.82;6.45;;;19.20;41.00;;;;;;5040616;28;20018;-56
2021/11/12 06:30:30;;;;;;;7.95;6.05;;;19.20;40.90;;;;;;5039679;28;20029;-57
2021/11/12 06:32:56;;;;;;;9.68;6.90;;;19.20;40.90;;;;;;5021927;28;20029;-54
2021/11/12 06:35:22;;;;;;;8.30;6.38;;;19.20;40.90;;;;;;5040023;28;20056;-57
2021/11/12 06:37:48;;;;;;;10.45;6.18;;;19.20;40.80;;;;;;5040164;28;20010;-57
2021/11/12 06:40:19;;;;;;;9.43;6.10;;;19.20;40.80;;;;;;5020968;28;20041;-57
2021/11/12 06:43:04;;;;;;;9.27;6.68;;;19.20;40.70;;;;;;5038461;28;20089;-55
2021/11/12 06:51:01;;;;;;;9.57;6.32;;;19.30;40.60;;;;;;5038139;28;20547;-57
2021/11/12 06:53:27;;;;;;;7.78;5.88;;;19.30;40.50;;;;;;5037008;28;20576;-57
2021/11/12 06:55:56;;;;;;;10.05;6.30;;;19.30;40.50;;;;;;5035757;28;20450;-55
2021/11/12 06:58:22;;;;;;;9.50;6.50;;;19.30;40.40;;;;;;5035604;28;20014;-54
2021/11/12 07:00:48;;;;;;;6.85;5.88;;;19.30;40.30;;;;;;5036057;28;20021;-54
2021/11/12 07:03:14;;;;;;;9.18;5.88;;;19.40;40.20;;;;;;5034999;28;20017;-56
2021/11/12 07:05:40;;;;;;;9.52;5.82;;;19.40;40.20;;;;;;5034272;28;20021;-55
2021/11/12 07:08:07;;;;;;;9.13;5.93;;;19.30;40.20;;;;;;5016887;28;20040;-56
2021/11/12 07:10:32;;;;;;;9.23;6.20;;;19.40;40.20;;;;;;5035313;28;20017;-56
2021/11/12 07:12:58;;;;;;;9.02;6.28;;;19.30;40.00;;;;;;5034011;28;20101;-54
2021/11/12 07:15:25;;;;;;;9.95;5.43;;;19.40;40.00;;;;;;5034407;28;20104;-56
2021/11/12 07:17:51;;;;;;;10.35;5.88;;;19.30;40.00;;;;;;5034776;28;20048;-52
2021/11/12 07:20:19;;;;;;;9.20;5.15;;;19.30;40.00;;;;;;5017787;28;20021;-54
2021/11/12 07:22:45;;;;;;;8.48;5.75;;;19.30;39.90;;;;;;5035021;28;20469;-55
2021/11/12 07:25:11;;;;;;;9.80;5.97;;;19.30;40.00;;;;;;5017762;28;20060;-54
2021/11/12 07:27:38;;;;;;;9.32;5.82;;;19.30;39.90;;;;;;5037495;28;20477;-55
2021/11/12 07:30:07;;;;;;;9.27;6.20;;;19.30;40.40;;;;;;5020299;28;20017;-55
2021/11/12 07:32:34;;;;;;;7.55;5.05;;;19.40;39.80;;;;;;5019590;28;20021;-55
2021/11/12 07:35:00;;;;;;;9.85;5.32;;;19.40;39.70;;;;;;5035704;28;20106;-55
2021/11/12 07:37:29;;;;;;;8.93;5.80;;;19.40;39.60;;;;;;5036149;28;20478;-55
2021/11/12 07:39:57;;;;;;;8.57;5.60;;;19.40;40.10;;;;;;5035264;28;20056;-55
2021/11/12 07:42:30;;;;;;;7.57;5.65;;;19.50;39.60;;;;;;5002209;28;20087;-53
2021/11/12 07:45:21;;;;;;;6.82;5.25;;;19.50;39.50;;;;;;5033979;28;20026;-54
2021/11/12 07:47:47;;;;;;;7.13;5.22;;;19.50;39.40;;;;;;5020446;28;20022;-54
2021/11/12 07:50:13;;;;;;;9.98;5.75;;;19.50;39.40;;;;;;5035797;28;20052;-55
2021/11/12 07:52:39;;;;;;;8.23;5.70;;;19.50;39.40;;;;;;5034453;28;20458;-55
2021/11/12 07:55:08;;;;;;;6.57;5.55;;;19.50;39.40;;;;;;5034926;28;20036;-54
2021/11/12 07:57:34;;;;;;;8.15;5.07;;;19.50;39.30;;;;;;5034363;28;20022;-57
2021/11/12 08:00:00;;;;;;;6.65;5.30;;;19.50;39.20;;;;;;5034009;28;20442;-57
2021/11/12 08:02:26;;;;;;;6.97;5.50;;;19.50;39.20;;;;;;5033954;28;20088;-56
2021/11/12 08:04:59;;;;;;;8.63;5.63;;;19.50;39.10;;;;;;5034093;28;20108;-57
2021/11/12 08:07:26;;;;;;;7.90;5.45;;;19.50;39.20;;;;;;5033791;28;20053;-56
2021/11/12 08:09:54;;;;;;;12.48;5.30;;;19.50;39.20;;;;;;5016915;28;20022;-57
2021/11/12 08:12:24;;;;;;;9.02;5.32;;;19.50;39.10;;;;;;5034391;28;20052;-58
2021/11/12 08:23:05;;;;;;;10.77;5.70;;;19.60;39.70;;;;;;5036939;28;20112;-58
2021/11/12 08:25:39;;;;;;;10.65;6.47;;;19.60;39.00;;;;;;5035743;28;20504;-58
2021/11/12 08:38:28;;;;;;;9.60;6.35;;;19.70;38.80;;;;;;5035207;28;20469;-58
2021/11/12 08:48:23;;;;;;;7.95;6.13;;;19.70;38.70;;;;;;5019820;28;20032;-58
2021/11/12 08:50:49;;;;;;;10.88;6.55;;;19.70;38.60;;;;;;5020587;28;20116;-57
2021/11/12 08:53:19;;;;;;;11.90;6.78;;;19.80;38.50;;;;;;5037863;28;20084;-58
2021/11/12 08:55:47;;;;;;;9.25;6.75;;;19.80;38.50;;;;;;5037500;28;20030;-57
2021/11/12 08:58:13;;;;;;;6.90;5.88;;;19.70;38.50;;;;;;5020009;28;20409;-58
2021/11/12 09:00:40;;;;;;;9.90;6.85;;;19.80;38.60;;;;;;5036865;28;20017;-57
2021/11/12 09:03:06;;;;;;;9.23;6.63;;;19.80;38.40;;;;;;5037110;28;20017;-58
2021/11/12 09:05:32;;;;;;;9.43;6.28;;;19.80;38.40;;;;;;5037288;28;20063;-58
2021/11/12 09:07:58;;;;;;;11.02;7.18;;;19.80;38.40;;;;;;5037349;28;20516;-58
2021/11/12 09:10:25;;;;;;;9.25;6.47;;;19.90;38.30;;;;;;5037207;28;20512;-58
2021/11/12 09:12:57;;;;;;;7.78;6.28;;;19.80;38.30;;;;;;5037473;28;20029;-58
2021/11/12 09:15:27;;;;;;;9.48;6.20;;;19.80;38.40;;;;;;5020385;28;20028;-58
2021/11/12 09:17:53;;;;;;;13.18;6.88;;;19.80;38.30;;;;;;5037679;28;20025;-58
2021/11/12 09:20:19;;;;;;;9.65;6.55;;;19.80;38.30;;;;;;5037475;28;20024;-58
2021/11/12 09:22:45;;;;;;;9.38;6.68;;;19.90;38.30;;;;;;5037424;28;20454;-57
2021/11/12 09:25:11;;;;;;;7.53;6.20;;;19.90;38.30;;;;;;5019960;28;20022;-58
2021/11/12 09:27:38;;;;;;;8.18;6.50;;;19.90;38.30;;;;;;5037393;28;20067;-57
2021/11/12 09:30:05;;;;;;;9.18;6.88;;;19.90;38.30;;;;;;5034907;28;20021;-57
2021/11/12 09:32:31;;;;;;;8.98;6.88;;;19.90;38.30;;;;;;5017233;28;20026;-58
2021/11/12 09:34:57;;;;;;;6.90;6.20;;;19.90;38.20;;;;;;5017731;28;20496;-58
2021/11/12 09:37:24;;;;;;;10.80;6.60;;;19.90;38.10;;;;;;5017853;28;20019;-58
2021/11/12 09:39:54;;;;;;;9.25;6.45;;;19.90;38.10;;;;;;5035462;28;20017;-58
2021/11/12 09:42:32;;;;;;;10.68;7.28;;;19.90;38.20;;;;;;5035554;28;20014;-58
2021/11/12 09:44:59;;;;;;;8.15;6.15;;;19.90;38.20;;;;;;5037621;28;20100;-58
2021/11/12 09:47:26;;;;;;;9.43;6.72;;;20.00;38.30;;;;;;5037660;28;20014;-58
2021/11/12 09:49:53;;;;;;;10.70;6.72;;;19.90;38.20;;;;;;5038344;28;20113;-58
2021/11/12 09:52:41;;;;;;;9.20;6.30;;;20.00;38.20;;;;;;5039555;28;20013;-58
2021/11/12 09:55:07;;;;;;;9.95;6.95;;;20.00;38.30;;;;;;4958697;29;20039;-58
2021/11/12 09:57:33;;;;;;;7.35;5.95;;;20.00;38.30;;;;;;4941835;29;20159;-58
2021/11/12 10:00:01;;;;;;;8.70;6.30;;;20.00;38.20;;;;;;4954186;29;20039;-58
2021/11/12 10:02:29;;;;;;;9.55;5.72;;;20.10;38.30;;;;;;4954156;29;20019;-57
2021/11/12 10:04:54;;;;;;;6.90;5.63;;;20.10;38.30;;;;;;4954141;29;20188;-57
2021/11/12 10:07:22;;;;;;;8.02;6.10;;;20.10;38.30;;;;;;4953828;28;20055;-57
2021/11/12 10:10:03;;;;;;;9.43;6.05;;;20.20;38.30;;;;;;4954149;29;20086;-57
2021/11/12 10:12:41;;;;;;;7.32;5.50;;;20.20;38.30;;;;;;4954090;29;20035;-57
2021/11/12 10:15:16;;;;;;;6.78;5.13;;;20.20;38.40;;;;;;4953836;29;20058;-57
2021/11/12 10:17:43;;;;;;;6.97;5.50;;;20.20;38.40;;;;;;4938835;29;20023;-57
2021/11/12 10:20:10;;;;;;;10.15;6.18;;;20.10;38.40;;;;;;4953649;29;20035;-56
2021/11/12 10:22:39;;;;;;;7.43;5.53;;;20.20;38.40;;;;;;4954159;29;20554;-57
2021/11/12 10:25:06;;;;;;;6.07;5.20;;;20.20;38.40;;;;;;4967981;28;20108;-58
2021/11/12 10:27:33;;;;;;;6.30;5.50;;;20.20;38.50;;;;;;5014577;28;20053;-58
2021/11/12 10:30:01;;;;;;;7.10;5.70;;;20.20;38.50;;;;;;4996919;28;20026;-58
2021/11/12 10:32:30;;;;;;;10.25;5.32;;;20.20;38.60;;;;;;5014560;28;20014;-58
2021/11/12 10:35:02;;;;;;;6.15;4.88;;;20.20;38.50;;;;;;5014442;28;20018;-58
2021/11/12 10:37:31;;;;;;;6.53;4.93;;;20.20;38.60;;;;;;5014471;28;20014;-58
2021/11/12 10:40:02;;;;;;;9.88;5.05;;;20.20;38.50;;;;;;5014112;28;20021;-58
2021/11/12 10:42:29;;;;;;;7.03;5.35;;;20.20;38.60;;;;;;5014481;28;20025;-58
2021/11/12 10:44:59;;;;;;;6.80;5.13;;;20.20;38.60;;;;;;5013619;28;20467;-58
2021/11/12 10:47:26;;;;;;;7.35;5.20;;;20.20;38.60;;;;;;5013929;28;20025;-58
2021/11/12 10:49:56;;;;;;;8.07;5.28;;;20.20;38.60;;;;;;5013992;28;20014;-58
2021/11/12 10:52:24;;;;;;;7.77;4.57;;;20.30;38.60;;;;;;4996856;28;20017;-58
2021/11/12 10:54:55;;;;;;;6.50;5.20;;;20.20;38.60;;;;;;5013716;28;20293;-58
2021/11/12 10:57:28;;;;;;;7.00;5.20;;;20.20;38.60;;;;;;5013880;28;20006;-58
2021/11/12 10:59:56;;;;;;;5.97;4.68;;;20.30;38.70;;;;;;5013978;28;20018;-58
2021/11/12 11:02:29;;;;;;;6.40;4.60;;;20.30;38.70;;;;;;5014003;28;20034;-58
2021/11/12 11:04:59;;;;;;;5.40;4.18;;;20.30;38.80;;;;;;5012744;28;20029;-58
2021/11/12 11:07:25;;;;;;;5.43;4.30;;;20.30;38.70;;;;;;5006251;28;20057;-58
2021/11/12 11:09:53;;;;;;;6.20;4.32;;;20.30;38.70;;;;;;5013600;28;20022;-58
2021/11/12 11:12:36;;;;;;;5.15;4.20;;;20.30;38.70;;;;;;5013109;28;20029;-58
2021/11/12 11:15:20;;;;;;;7.05;4.50;;;20.30;38.70;;;;;;5013232;28;20378;-58
2021/11/12 11:17:48;;;;;;;7.30;4.50;;;20.30;38.70;;;;;;5013456;28;20495;-58
2021/11/12 11:20:18;;;;;;;6.55;4.55;;;20.30;38.70;;;;;;4997194;28;20017;-58
2021/11/12 11:22:55;;;;;;;4.53;3.97;;;20.30;38.80;;;;;;5014210;28;20021;-58
2021/11/12 11:25:25;;;;;;;5.03;3.78;;;20.30;38.70;;;;;;5014106;28;20014;-58
2021/11/12 11:27:52;;;;;;;6.00;4.03;;;20.40;38.80;;;;;;5013626;28;20032;-58
2021/11/12 11:30:18;;;;;;;7.45;4.40;;;20.40;38.70;;;;;;5014584;28;20013;-58
2021/11/12 11:32:46;;;;;;;6.15;3.90;;;20.40;38.60;;;;;;5014223;28;20022;-58
2021/11/12 11:35:14;;;;;;;5.80;4.05;;;20.50;38.70;;;;;;5014302;28;20022;-58
2021/11/12 11:37:41;;;;;;;4.35;3.47;;;20.40;38.70;;;;;;5014057;28;20764;-58
2021/11/12 11:40:09;;;;;;;6.68;3.85;;;20.40;38.70;;;;;;5014693;28;20014;-58
2021/11/12 11:42:37;;;;;;;4.88;4.18;;;20.40;38.70;;;;;;4997094;28;20014;-58
2021/11/12 11:45:03;;;;;;;6.80;3.80;;;20.50;38.60;;;;;;4996814;28;20018;-58
2021/11/12 11:47:30;;;;;;;5.22;4.10;;;20.50;38.60;;;;;;4996973;28;20093;-58
2021/11/12 11:49:58;;;;;;;4.72;3.50;;;20.50;38.50;;;;;;4997202;28;20110;-58
2021/11/12 11:52:26;;;;;;;4.85;3.33;;;20.50;38.50;;;;;;5014359;28;20022;-58
2021/11/12 11:54:52;;;;;;;5.10;3.45;;;20.60;38.50;;;;;;5014481;28;20026;-58
2021/11/12 11:57:23;;;;;;;4.15;3.20;;;20.60;38.50;;;;;;5015146;28;20029;-58
2021/11/12 12:00:18;;;;;;;7.13;3.53;;;20.50;38.40;;;;;;5013732;28;20021;-58
2021/11/12 12:02:43;;;;;;;4.20;3.20;;;20.60;38.50;;;;;;4998974;28;20022;-58
2021/11/12 12:05:09;;;;;;;4.65;3.88;;;20.60;38.40;;;;;;4979459;28;20487;-58
2021/11/12 12:07:54;;;;;;;4.53;3.40;;;20.60;38.30;;;;;;5010571;28;20056;-58
2021/11/12 12:10:21;;;;;;;4.53;3.90;;;20.60;38.30;;;;;;5033073;28;20014;-58
2021/11/12 12:12:49;;;;;;;5.97;3.85;;;20.60;38.40;;;;;;5033107;28;20020;-57
2021/11/12 12:15:17;;;;;;;3.72;3.28;;;20.60;38.40;;;;;;5033187;28;20025;-58
2021/11/12 12:17:47;;;;;;;6.05;4.03;;;20.60;38.30;;;;;;5036021;28;20021;-56
2021/11/12 13:26:19;;;;;;;7.13;3.35;;;20.80;37.90;;;;;;5036942;28;20025;-57
2021/11/12 13:28:47;;;;;;;4.55;2.90;;;20.80;37.90;;;;;;5031856;28;20528;-57
2021/11/12 13:31:18;;;;;;;5.68;3.42;;;20.80;37.80;;;;;;5038775;28;20466;-57
2021/11/12 13:33:50;;;;;;;5.97;2.80;;;20.90;37.70;;;;;;5041845;28;20017;-58
2021/11/12 13:36:31;;;;;;;5.43;3.00;;;20.90;37.70;;;;;;5040698;28;20152;-57
2021/11/12 13:39:19;;;;;;;4.20;2.87;;;20.90;37.70;;;;;;5036856;28;20041;-57
2021/11/12 13:41:46;;;;;;;3.53;2.88;;;20.90;37.70;;;;;;5036961;28;20253;-57
2021/11/12 13:44:16;;;;;;;5.72;3.30;;;20.90;37.60;;;;;;5036975;28;20020;-57
2021/11/12 13:46:53;;;;;;;3.55;3.20;;;20.90;37.50;;;;;;5035811;28;20547;-57
2021/11/12 13:49:38;;;;;;;5.90;2.60;;;20.90;37.50;;;;;;5036102;28;20013;-57
2021/11/12 13:52:07;;;;;;;4.97;3.13;;;21.00;37.60;;;;;;5019139;28;20021;-57
2021/11/12 13:54:57;;;;;;;5.13;3.25;;;20.90;37.40;;;;;;5035866;28;20053;-57
2021/11/12 13:57:26;;;;;;;4.43;3.05;;;20.90;37.40;;;;;;5035746;28;20063;-57
2021/11/12 13:59:59;;;;;;;4.25;2.97;;;21.00;37.40;;;;;;5035464;28;20066;-55
2021/11/12 14:02:26;;;;;;;4.63;2.80;;;21.00;37.40;;;;;;5035544;28;20016;-57
2021/11/12 14:04:53;;;;;;;4.65;3.25;;;21.00;37.40;;;;;;5035784;28;20155;-57
2021/11/12 14:07:22;;;;;;;4.05;3.00;;;21.00;37.30;;;;;;5017953;28;20516;-57
2021/11/12 14:10:05;;;;;;;3.92;2.63;;;21.00;37.40;;;;;;5035087;28;20025;-58
2021/11/12 14:12:31;;;;;;;3.38;2.58;;;21.00;37.50;;;;;;5035222;28;20010;-58
2021/11/12 14:15:05;;;;;;;4.05;2.65;;;21.00;37.30;;;;;;5035247;28;20021;-58
2021/11/12 14:17:32;;;;;;;5.47;2.50;;;21.00;37.40;;;;;;5036042;28;20025;-58
2021/11/12 14:20:25;;;;;;;5.45;2.78;;;21.00;37.30;;;;;;5018515;28;20028;-58
2021/11/12 14:23:03;;;;;;;5.15;3.03;;;21.00;37.90;;;;;;5019995;28;20105;-59
2021/11/12 14:25:49;;;;;;;4.18;2.90;;;21.00;37.30;;;;;;5035821;28;20354;-58
2021/11/12 14:28:34;;;;;;;4.65;2.90;;;20.90;37.30;;;;;;5020694;28;20052;-58
2021/11/12 14:34:03;;;;;;;4.22;2.70;;;20.90;37.30;;;;;;5035008;28;20121;-58
2021/11/12 14:36:44;;;;;;;4.15;2.45;;;20.90;37.30;;;;;;5006030;28;20036;-58
2021/11/12 14:39:17;;;;;;;3.47;2.55;;;20.90;37.30;;;;;;5024216;28;20018;-58
2021/11/12 14:50:54;;;;;;;4.32;2.88;;;20.90;37.30;;;;;;5038105;28;20481;-58
2021/11/12 14:53:31;;;;;;;5.43;2.92;;;20.90;37.30;;;;;;4938254;29;20036;-58
2021/11/12 14:56:05;;;;;;;4.35;2.60;;;20.90;37.30;;;;;;4938922;29;20039;-58
2021/11/12 14:58:32;;;;;;;4.40;2.80;;;21.00;37.40;;;;;;4937258;29;20031;-56
2021/11/12 15:01:14;;;;;;;5.15;3.03;;;20.90;37.30;;;;;;4935822;29;20019;-56
2021/11/12 15:03:42;;;;;;;3.08;2.40;;;20.90;37.40;;;;;;4935435;29;20034;-56
2021/11/12 15:06:09;;;;;;;3.90;2.97;;;20.60;37.80;;;;;;4935163;29;20122;-57
2021/11/12 15:08:42;;;;;;;4.35;3.08;;;20.50;38.00;;;;;;4935487;29;20071;-55
2021/11/12 15:11:09;;;;;;;5.38;2.95;;;20.60;38.00;;;;;;4935264;29;20027;-57
2021/11/12 15:13:37;;;;;;;4.07;2.58;;;20.60;37.80;;;;;;4934431;29;20031;-55
2021/11/12 15:16:08;;;;;;;6.20;2.88;;;20.70;37.70;;;;;;4918022;29;20058;-54
2021/11/12 15:18:34;;;;;;;4.90;2.83;;;20.70;37.70;;;;;;4933592;29;20022;-56
2021/11/12 15:21:04;;;;;;;6.55;3.10;;;20.70;37.70;;;;;;4934169;29;20544;-56
2021/11/12 15:23:51;;;;;;;4.57;3.25;;;20.80;37.50;;;;;;4934791;29;20036;-56
2021/11/12 15:31:33;;;;;;;3.50;2.58;;;20.80;37.40;;;;;;5035391;28;20025;-56
2021/11/12 15:34:03;;;;;;;3.15;2.55;;;20.90;37.40;;;;;;5019019;28;20025;-55
2021/11/12 15:36:30;;;;;;;7.35;2.88;;;20.90;37.40;;;;;;5035208;28;20029;-53
2021/11/12 15:39:05;;;;;;;4.00;2.33;;;20.90;37.40;;;;;;5034744;28;20521;-51
2021/11/12 15:44:20;;;;;;;4.30;2.50;;;20.90;37.40;;;;;;5022472;28;20036;-53
2021/11/12 15:47:05;;;;;;;5.13;2.80;;;20.90;37.30;;;;;;5036669;28;20010;-54
2021/11/12 15:49:31;;;;;;;3.67;2.67;;;20.90;37.30;;;;;;5021178;28;20047;-51
2021/11/12 15:52:04;;;;;;;2.75;2.40;;;20.90;37.10;;;;;;5038316;28;20025;-52
2021/11/12 15:54:40;;;;;;;4.40;2.30;;;20.90;37.10;;;;;;5040089;28;20021;-53
2021/11/12 16:12:16;;;;;;;3.33;2.40;;;20.60;36.70;;;;;;5039634;28;20547;-52
2021/11/12 16:25:16;;;;;;;3.60;2.42;;;20.70;36.50;;;;;;5040610;28;20049;-51
2021/11/12 16:27:48;;;;;;;4.93;2.60;;;20.70;36.50;;;;;;5040527;28;20073;-52
2021/11/12 16:30:17;;;;;;;3.35;2.45;;;20.70;36.40;;;;;;5039131;28;20080;-52
2021/11/12 16:35:13;;;;;;;3.20;2.78;;;20.70;36.40;;;;;;5038153;28;20037;-52
2021/11/12 16:37:40;;;;;;;3.63;2.37;;;20.70;36.40;;;;;;5038448;28;20005;-52
2021/11/12 16:40:20;;;;;;;5.43;2.63;;;20.70;36.40;;;;;;5020643;28;20470;-52
2021/11/12 16:45:49;;;;;;;3.05;2.53;;;20.70;36.50;;;;;;5036178;28;20029;-52
2021/11/12 16:53:37;;;;;;;2.97;2.67;;;20.70;36.60;;;;;;5037209;28;20037;-51
2021/11/12 16:56:39;;;;;;;4.85;2.90;;;20.60;36.50;;;;;;5036629;28;20052;-51
2021/11/12 17:12:44;;;;;;;4.68;3.13;;;20.60;36.80;;;;;;4982741;28;20082;-54
2021/11/12 17:23:23;;;;;;;5.07;3.20;;;20.50;37.10;;;;;;5019315;28;20026;-56
2021/11/12 17:47:26;;;;;;;4.22;3.05;;;20.10;38.10;;;;;;5034553;28;20060;-53
2021/11/12 17:52:43;;;;;;;5.35;3.53;;;20.00;38.30;;;;;;5034605;28;20393;-52
2021/11/12 18:05:46;;;;;;;4.05;3.20;;;19.80;39.00;;;;;;5036146;28;20079;-53
2021/11/12 21:48:44;;;;;;;5.18;4.65;;;18.10;46.30;;;;;;5033896;28;20036;-53
2021/11/12 21:51:13;;;;;;;6.93;4.93;;;18.10;46.40;;;;;;5034908;28;20087;-54
2021/11/12 21:53:39;;;;;;;6.60;4.93;;;18.10;46.50;;;;;;5034846;28;20021;-57
2021/11/12 21:56:05;;;;;;;6.97;4.65;;;18.10;46.50;;;;;;5016702;28;20112;-53
2021/11/12 21:58:31;;;;;;;6.10;4.47;;;18.10;46.60;;;;;;5016869;28;20087;-56
2021/11/12 22:00:58;;;;;;;5.60;4.50;;;18.10;46.70;;;;;;5034282;28;20462;-56
2021/11/12 22:03:27;;;;;;;6.55;4.50;;;18.10;46.80;;;;;;5034165;28;20013;-56
2021/11/12 22:05:53;;;;;;;8.85;5.13;;;18.10;46.90;;;;;;5033869;28;20500;-56
2021/11/12 22:08:19;;;;;;;7.88;4.53;;;18.10;47.00;;;;;;5034043;28;20045;-56
2021/11/12 22:10:45;;;;;;;6.05;4.55;;;18.10;47.10;;;;;;5016378;28;20048;-56
2021/11/12 22:13:11;;;;;;;7.22;4.82;;;18.10;47.10;;;;;;5034001;28;20022;-55
2021/11/12 22:15:40;;;;;;;7.97;4.72;;;18.10;47.20;;;;;;5034059;28;20052;-56
2021/11/12 22:18:07;;;;;;;6.38;4.78;;;18.10;47.20;;;;;;5033845;28;20017;-57
2021/11/12 22:20:34;;;;;;;6.88;4.70;;;18.10;47.30;;;;;;5034130;28;20017;-57
2021/11/12 22:23:00;;;;;;;6.15;4.50;;;18.00;47.40;;;;;;5034159;28;20014;-57
2021/11/12 22:25:26;;;;;;;5.70;4.32;;;18.00;47.50;;;;;;5034605;28;20504;-57
2021/11/12 22:27:52;;;;;;;6.03;4.50;;;18.00;47.60;;;;;;5034820;28;20067;-57
2021/11/12 22:30:18;;;;;;;6.55;4.82;;;18.00;47.80;;;;;;5034022;28;20474;-57
2021/11/12 22:32:44;;;;;;;9.27;4.80;;;18.00;47.90;;;;;;5034149;28;20022;-57
2021/11/12 22:35:10;;;;;;;7.43;5.05;;;18.00;48.00;;;;;;5016360;28;20053;-57
2021/11/12 22:37:39;;;;;;;7.63;5.00;;;18.00;48.20;;;;;;5034069;28;20041;-57
2021/11/12 22:40:06;;;;;;;6.35;4.57;;;18.00;48.30;;;;;;5034081;28;20014;-57
2021/11/12 22:42:31;;;;;;;6.05;4.43;;;17.90;48.40;;;;;;5016431;28;20014;-58
2021/11/12 22:44:57;;;;;;;8.82;5.00;;;17.90;48.70;;;;;;5034214;28;20540;-57
2021/11/12 22:47:23;;;;;;;6.63;4.57;;;17.90;48.80;;;;;;5033668;28;20025;-57
2021/11/12 22:49:52;;;;;;;7.20;4.72;;;17.90;49.00;;;;;;5033660;28;20017;-57
2021/11/12 22:52:17;;;;;;;9.85;4.82;;;17.90;49.10;;;;;;5033605;28;20100;-57